Montgomery Regional (Dannelly Field) Airport
KMGM : now visible

Airfield :











YOU CAN JOIN US ON...

 
LOGIN :

Register | Disclaimer

   EN    FR    IT 

 









Legend :    VFR   Marginal VFR   IFR   Intensive IFR   Very Intensive IFR
Visi :
Ceiling :
>= 8 km
>= 3000ft
5 to 8 km
1000 to 3000 ft
1500m to 5 km
500 to 1000 ft
800 to 1500m
200 to 500 ft
< 800m
< 200 ft
Symbols :   Thunderstorms  Fog  Heavy snow  Heavy precipitations  Wind > 20 kt






- Airport Elevation : 221 ft
- IATA code : MGM


KMGM - Montgomery Regional (Dannelly Field)

CURRENT METAR :
  • 250753Z AUTO 09007KT 10SM CLR 22/19 A2994 RMK AO2 SLP136 T02220194

EXPIRED METARs :
  • 250653Z AUTO 08006KT 10SM CLR 23/19 A2996 RMK AO2 SLP141 T02280194
  • 250553Z AUTO 04004KT 10SM CLR 23/19 A2996 RMK AO2 SLP144 T02330194 10272 20228 403390194 58009

TAF KMGM
Valid from the 25 at 06:00 until the 26 at 06:00 UTC


250520Z 2506/2606 06003KT P6SM SCT250
FM251300 11010KT P6SM SCT060
KZTL FIR / North America



MET'MAP, your aeronautical weather chart ! - Copyright ORBIFLY December 2007 - Disclaimer

ORBIFLY MET'MAP TEAM :

Programming & Development : Alexandra Zaïnal
Concept & original design : Baudouin d'Aumeries
Assistance for programming : Marc-Olivier Méhu
Technical & hardware support : Manuel Goepfert

Contact : metmap@orbifly.com




SOURCES & CREDITS :

   NOAA       Earth
Advisory